The Pas Airport
CYQD : now visible

Airfield :











YOU CAN JOIN US ON...

 
LOGIN :

Register | Disclaimer

   EN    FR    IT 

 









Legend :    VFR   Marginal VFR   IFR   Intensive IFR   Very Intensive IFR
Visi :
Ceiling :
>= 8 km
>= 3000ft
5 to 8 km
1000 to 3000 ft
1500m to 5 km
500 to 1000 ft
800 to 1500m
200 to 500 ft
< 800m
< 200 ft
Symbols :   Thunderstorms  Fog  Heavy snow  Heavy precipitations  Wind > 20 kt






- Airport Elevation : 887 ft
- IATA code : YQD


CYQD - The Pas

CURRENT METAR :
  • 151638Z AUTO 30012G18KT 5SM -SN SCT046 SCT060 OVC083 M18/M21 A2970 RMK SLP090

EXPIRED METARs :
  • 151600Z AUTO 30010G17KT 9SM -SN BKN060 OVC080 M18/M21 A2969 RMK SLP085
  • 151500Z AUTO 29010KT 9SM -SN OVC055 M18/M21 A2966 RMK SLP077
  • 151400Z AUTO 26007KT 9SM -SN OVC049 M18/M21 A2964 RMK SLP071

TAF TAF CYQD
Valid from the 15 at 13:00 until the 16 at 01:00 UTC


151238Z 1513/1601 20005KT P6SM -SN FEW020 OVC070
TEMPO 1513/1516 3SM -SN BKN020 OVC040
BECMG 1514/1516 28008KT
FM151600 28008KT P6SM BKN040
TEMPO 1516/1523 6SM -SN BKN020
BECMG 1516/1518 29012KT
FM152300 29010KT P6SM BKN020
TEMPO 1523/1601 SCT020 RMK FCST BASED ON AUTO OBS. NXT FCST BY 151900Z



MET'MAP, your aeronautical weather chart ! - Copyright ORBIFLY December 2007 - Disclaimer

ORBIFLY MET'MAP TEAM :

Programming & Development : Alexandra Zaïnal
Concept & original design : Baudouin d'Aumeries
Assistance for programming : Marc-Olivier Méhu
Technical & hardware support : Manuel Goepfert

Contact : metmap@orbifly.com




SOURCES & CREDITS :

   NOAA       Earth
Advisory